Time;durP1;ratioP1;P1;durP2;ratioP2;P2;SDS_P1;SDS_P2;PMS_P1;PMS_P2;Temp;Humidity;BMP_temperature;BMP_pressure;BME280_temperature;BME280_humidity;BME280_pressure;Samples;Min_cycle;Max_cycle;Signal;HPM_P1;HPM_P2
2021/12/02 00:00:06;;;;;;;7.80;2.47;;;20.80;57.20;;;;;;4929589;29;20282;-43
2021/12/02 00:02:38;;;;;;;9.10;2.50;;;20.80;57.00;;;;;;4927630;29;20204;-43
2021/12/02 00:05:09;;;;;;;8.23;2.70;;;20.80;57.00;;;;;;4929582;29;20298;-42
2021/12/02 00:07:40;;;;;;;8.70;2.28;;;20.80;57.10;;;;;;4929281;29;20230;-42
2021/12/02 00:10:10;;;;;;;4.63;1.90;;;20.80;57.20;;;;;;4928193;29;20207;-42
2021/12/02 00:12:41;;;;;;;8.80;2.67;;;20.80;57.40;;;;;;4929272;29;20233;-42
2021/12/02 00:15:21;;;;;;;6.85;2.30;;;20.80;57.40;;;;;;4930425;29;20283;-44
2021/12/02 00:17:57;;;;;;;10.75;2.80;;;20.80;57.50;;;;;;4930503;29;20234;-42
2021/12/02 00:23:32;;;;;;;11.00;3.13;;;20.80;57.50;;;;;;4929802;29;20211;-42
2021/12/02 00:26:04;;;;;;;9.15;2.58;;;20.90;57.60;;;;;;4930267;29;20222;-42
2021/12/02 00:28:38;;;;;;;6.82;2.13;;;20.80;57.50;;;;;;4927667;29;20230;-42
2021/12/02 00:31:13;;;;;;;9.13;2.70;;;20.90;57.50;;;;;;4929139;29;20641;-42
2021/12/02 00:33:48;;;;;;;7.65;2.40;;;20.90;57.50;;;;;;4929600;29;20584;-43
2021/12/02 00:36:20;;;;;;;4.70;1.92;;;20.90;57.40;;;;;;4929387;29;20751;-42
2021/12/02 00:38:51;;;;;;;6.38;2.30;;;20.90;57.40;;;;;;4929863;29;20306;-43
2021/12/02 00:41:24;;;;;;;9.05;2.65;;;20.90;57.30;;;;;;4929767;29;20200;-42
2021/12/02 00:43:56;;;;;;;8.70;2.45;;;20.90;57.10;;;;;;4930062;29;20282;-42
2021/12/02 00:46:30;;;;;;;9.95;2.50;;;20.90;57.10;;;;;;4928898;29;20295;-42
2021/12/02 00:49:03;;;;;;;7.55;2.30;;;20.90;57.20;;;;;;4928676;29;20219;-42
2021/12/02 00:51:34;;;;;;;7.82;2.35;;;20.90;57.00;;;;;;4929788;29;20286;-42
2021/12/02 00:54:07;;;;;;;9.77;2.55;;;20.90;56.90;;;;;;4928470;29;20204;-42
2021/12/02 00:56:38;;;;;;;10.25;2.50;;;20.90;57.10;;;;;;4928125;29;20708;-44
2021/12/02 00:59:09;;;;;;;9.20;2.50;;;20.90;57.20;;;;;;4928654;29;20230;-44
2021/12/02 01:01:40;;;;;;;8.50;2.28;;;20.90;57.30;;;;;;4928912;29;20206;-43
2021/12/02 01:04:13;;;;;;;8.05;2.30;;;20.90;57.30;;;;;;4928960;29;20298;-42
2021/12/02 01:06:44;;;;;;;6.53;2.53;;;20.90;57.40;;;;;;4929309;29;20231;-42
2021/12/02 01:09:15;;;;;;;6.65;2.22;;;21.00;57.80;;;;;;4929733;29;20299;-42
2021/12/02 01:11:46;;;;;;;6.53;2.35;;;21.00;58.10;;;;;;4929393;29;20286;-44
2021/12/02 01:14:17;;;;;;;9.18;2.22;;;21.00;58.00;;;;;;4928004;29;20199;-43
2021/12/02 01:16:47;;;;;;;8.68;3.03;;;21.10;57.90;;;;;;4928536;29;20195;-42
2021/12/02 01:19:19;;;;;;;7.97;2.60;;;21.10;57.80;;;;;;4928541;29;20290;-42
2021/12/02 01:21:52;;;;;;;10.77;2.45;;;21.10;57.80;;;;;;4929198;29;20206;-42
2021/12/02 01:24:23;;;;;;;10.13;2.20;;;21.10;57.80;;;;;;4928567;29;20290;-42
2021/12/02 01:26:56;;;;;;;8.13;2.28;;;21.10;57.80;;;;;;4929070;29;20565;-42
2021/12/02 01:29:27;;;;;;;8.40;2.58;;;21.10;57.80;;;;;;4928309;29;20295;-44
2021/12/02 01:32:04;;;;;;;6.80;2.30;;;21.10;57.70;;;;;;4928546;29;20915;-42
2021/12/02 01:34:37;;;;;;;6.43;2.15;;;21.20;57.80;;;;;;4929325;29;20210;-42
2021/12/02 01:37:12;;;;;;;7.00;2.55;;;21.20;57.60;;;;;;4928778;29;20216;-43
2021/12/02 01:39:43;;;;;;;5.80;1.88;;;21.20;57.60;;;;;;4930113;29;20207;-42
2021/12/02 01:42:24;;;;;;;6.47;2.40;;;21.20;58.20;;;;;;4929119;29;20299;-43
2021/12/02 01:44:56;;;;;;;10.18;2.65;;;21.20;57.60;;;;;;4928018;29;20657;-44
2021/12/02 01:47:29;;;;;;;7.32;1.90;;;21.20;57.60;;;;;;4927758;29;20707;-42
2021/12/02 01:50:04;;;;;;;15.13;3.17;;;21.20;57.50;;;;;;4927824;29;20259;-43
2021/12/02 01:52:35;;;;;;;9.65;2.22;;;21.20;58.10;;;;;;4928902;29;20746;-42
2021/12/02 01:55:12;;;;;;;7.63;2.08;;;21.20;57.40;;;;;;4928265;29;20210;-42
2021/12/02 01:57:50;;;;;;;7.57;2.30;;;21.30;57.40;;;;;;4928487;29;20346;-42
2021/12/02 02:00:21;;;;;;;9.05;2.60;;;21.30;57.20;;;;;;4931411;29;20214;-42
2021/12/02 02:02:52;;;;;;;8.88;2.20;;;21.30;57.20;;;;;;4930855;29;20627;-42
2021/12/02 02:05:24;;;;;;;6.72;2.25;;;21.30;57.10;;;;;;4932492;29;20290;-43
2021/12/02 02:08:03;;;;;;;9.93;2.33;;;21.30;57.10;;;;;;4931264;29;20331;-44
2021/12/02 02:10:34;;;;;;;9.82;2.97;;;21.30;57.00;;;;;;4931757;29;20207;-48
2021/12/02 02:13:07;;;;;;;6.97;2.10;;;21.30;56.90;;;;;;4931552;29;20310;-42
2021/12/02 02:15:37;;;;;;;14.05;2.97;;;21.30;56.80;;;;;;4932091;29;20204;-43
2021/12/02 02:18:12;;;;;;;8.27;2.28;;;21.30;56.80;;;;;;4930988;29;20310;-42
2021/12/02 02:20:50;;;;;;;6.32;2.13;;;21.30;57.20;;;;;;4931889;29;20200;-44
2021/12/02 02:23:21;;;;;;;7.38;2.47;;;21.30;56.60;;;;;;4931557;29;20703;-43
2021/12/02 02:25:51;;;;;;;8.60;2.40;;;21.30;56.60;;;;;;4932812;29;20300;-43
2021/12/02 02:28:22;;;;;;;6.28;2.15;;;21.30;56.80;;;;;;4931467;29;20583;-43
2021/12/02 02:30:53;;;;;;;9.25;2.20;;;21.30;56.70;;;;;;4932054;29;20283;-43
2021/12/02 02:33:23;;;;;;;7.88;2.15;;;21.30;56.80;;;;;;4930798;29;20231;-42
2021/12/02 02:35:55;;;;;;;6.90;2.35;;;21.30;56.80;;;;;;4932184;29;20199;-43
2021/12/02 02:38:26;;;;;;;8.60;2.38;;;21.40;56.80;;;;;;4930192;29;20742;-43
2021/12/02 02:40:58;;;;;;;7.88;2.35;;;21.40;56.70;;;;;;4931017;29;20302;-43
2021/12/02 02:43:31;;;;;;;11.50;2.40;;;21.40;56.60;;;;;;4931061;29;20714;-42
2021/12/02 02:46:01;;;;;;;8.25;2.50;;;21.40;56.60;;;;;;4930097;29;20747;-42
2021/12/02 02:48:33;;;;;;;9.38;2.50;;;21.40;56.60;;;;;;4931820;29;20263;-44
2021/12/02 02:51:06;;;;;;;7.07;2.17;;;21.40;56.50;;;;;;4932171;29;20203;-42
2021/12/02 02:53:36;;;;;;;5.43;2.15;;;21.40;56.50;;;;;;4931964;29;20767;-42
2021/12/02 02:56:10;;;;;;;8.18;2.45;;;21.40;56.40;;;;;;4929388;29;20630;-42
2021/12/02 03:04:32;;;;;;;6.80;2.50;;;21.40;56.40;;;;;;4927607;29;20227;-42
2021/12/02 03:07:09;;;;;;;7.45;2.20;;;21.40;56.40;;;;;;4931293;29;20282;-43
2021/12/02 03:09:54;;;;;;;9.50;2.10;;;21.40;56.30;;;;;;4931636;29;20203;-44
2021/12/02 03:12:28;;;;;;;10.88;2.60;;;21.40;56.40;;;;;;4930315;29;20285;-43
2021/12/02 03:17:47;;;;;;;7.32;2.03;;;21.40;56.50;;;;;;4929018;29;20240;-43
2021/12/02 03:20:17;;;;;;;7.78;2.60;;;21.40;56.40;;;;;;4929939;29;20218;-42
2021/12/02 03:22:50;;;;;;;8.32;2.60;;;21.40;56.40;;;;;;4928447;29;20714;-42
2021/12/02 03:25:20;;;;;;;6.88;2.20;;;21.50;56.40;;;;;;4931114;29;20286;-42
2021/12/02 03:27:51;;;;;;;7.82;2.38;;;21.50;56.40;;;;;;4931784;28;20219;-44
2021/12/02 03:30:22;;;;;;;5.85;2.20;;;21.50;56.40;;;;;;4930109;29;20199;-43
2021/12/02 03:32:53;;;;;;;7.00;2.03;;;21.50;56.50;;;;;;4930870;29;20215;-43
2021/12/02 03:35:23;;;;;;;8.57;2.70;;;21.50;56.50;;;;;;4930002;29;20286;-43
2021/12/02 03:37:55;;;;;;;8.40;2.35;;;21.50;56.50;;;;;;4930733;29;20310;-42
2021/12/02 03:40:26;;;;;;;8.27;2.50;;;21.50;56.60;;;;;;4930671;29;20727;-43
2021/12/02 03:42:58;;;;;;;7.38;2.60;;;21.50;56.50;;;;;;4927432;29;20204;-42
2021/12/02 03:45:30;;;;;;;8.25;2.78;;;21.50;56.50;;;;;;4930926;29;20204;-42
2021/12/02 03:48:01;;;;;;;8.27;2.53;;;21.50;56.60;;;;;;4929606;29;20251;-42
2021/12/02 03:50:31;;;;;;;6.55;2.60;;;21.50;56.50;;;;;;4928326;29;20210;-43
2021/12/02 03:53:03;;;;;;;9.98;2.53;;;21.50;56.50;;;;;;4929887;29;20219;-42
2021/12/02 03:55:34;;;;;;;8.57;2.22;;;21.50;56.40;;;;;;4929828;29;20299;-42
2021/12/02 03:58:04;;;;;;;7.50;2.22;;;21.50;56.40;;;;;;4928007;29;20306;-43
2021/12/02 04:00:35;;;;;;;8.55;2.45;;;21.50;56.40;;;;;;4928448;29;20290;-42
2021/12/02 04:03:05;;;;;;;5.75;2.33;;;21.60;56.50;;;;;;4929656;29;20209;-42
2021/12/02 04:05:36;;;;;;;9.20;2.38;;;21.60;56.40;;;;;;4928656;29;20208;-44
2021/12/02 04:08:11;;;;;;;7.45;2.17;;;21.50;56.40;;;;;;4929971;29;20316;-43
2021/12/02 04:10:42;;;;;;;12.60;2.97;;;21.60;56.50;;;;;;4929515;29;20207;-42
2021/12/02 04:13:18;;;;;;;8.13;2.47;;;21.60;56.60;;;;;;4930373;29;20227;-42
2021/12/02 04:15:55;;;;;;;9.45;1.88;;;21.60;56.60;;;;;;4930574;29;21185;-42
2021/12/02 04:18:26;;;;;;;10.68;2.25;;;21.60;57.00;;;;;;4929148;29;20684;-44
2021/12/02 04:20:56;;;;;;;8.23;2.85;;;21.70;57.30;;;;;;4930744;29;20329;-43
2021/12/02 04:23:28;;;;;;;9.90;2.20;;;21.70;57.30;;;;;;4929142;29;20310;-43
2021/12/02 04:25:59;;;;;;;7.38;2.63;;;21.70;57.20;;;;;;4929714;29;20652;-43
2021/12/02 04:28:29;;;;;;;10.02;2.40;;;21.70;57.10;;;;;;4929124;29;20774;-42
2021/12/02 04:31:00;;;;;;;8.68;2.80;;;21.80;57.10;;;;;;4929699;29;20633;-53
2021/12/02 04:33:31;;;;;;;6.15;2.15;;;21.80;57.00;;;;;;4929080;29;20223;-48
2021/12/02 04:36:03;;;;;;;9.82;2.58;;;21.80;56.90;;;;;;4929841;29;20205;-47
2021/12/02 04:38:35;;;;;;;8.10;2.20;;;21.80;56.90;;;;;;4928692;29;20215;-49
2021/12/02 04:41:06;;;;;;;5.63;2.20;;;21.90;56.90;;;;;;4928878;29;20796;-49
2021/12/02 04:43:36;;;;;;;7.57;2.45;;;21.90;56.90;;;;;;4928419;29;20286;-46
2021/12/02 04:46:07;;;;;;;6.72;2.08;;;21.90;56.80;;;;;;4928133;29;20294;-45
2021/12/02 04:48:37;;;;;;;10.75;2.10;;;21.90;56.80;;;;;;4927639;29;20318;-50
2021/12/02 04:51:07;;;;;;;8.60;2.72;;;21.90;56.70;;;;;;4928595;29;20207;-45
2021/12/02 04:53:40;;;;;;;8.00;2.47;;;21.90;56.60;;;;;;4927946;29;20227;-48
2021/12/02 04:56:10;;;;;;;9.73;2.38;;;21.90;56.60;;;;;;4930446;29;20250;-47
2021/12/02 04:58:41;;;;;;;7.38;2.20;;;21.90;56.60;;;;;;4929878;29;20251;-46
2021/12/02 05:01:11;;;;;;;6.32;2.28;;;21.90;56.50;;;;;;4929422;29;20294;-46
2021/12/02 05:03:42;;;;;;;9.65;2.80;;;21.90;56.50;;;;;;4928564;29;20303;-46
2021/12/02 05:06:12;;;;;;;8.43;1.88;;;21.90;56.50;;;;;;4928816;29;20286;-47
2021/12/02 05:08:45;;;;;;;5.30;1.67;;;21.90;56.40;;;;;;4928764;29;20298;-47
2021/12/02 05:11:15;;;;;;;6.10;1.90;;;21.90;56.40;;;;;;4929247;29;20294;-48
2021/12/02 05:13:45;;;;;;;5.85;2.30;;;21.90;56.30;;;;;;4928694;29;20222;-48
2021/12/02 05:16:16;;;;;;;7.40;2.50;;;21.90;56.20;;;;;;4929171;29;20298;-47
2021/12/02 05:18:46;;;;;;;5.43;2.10;;;21.90;56.30;;;;;;4928913;29;20258;-50
2021/12/02 05:21:17;;;;;;;7.07;2.28;;;21.90;56.30;;;;;;4929541;29;20199;-46
2021/12/02 05:23:53;;;;;;;9.88;2.42;;;21.90;56.20;;;;;;4929172;29;20283;-46
2021/12/02 05:26:24;;;;;;;6.28;2.33;;;22.00;56.30;;;;;;4928252;29;20975;-46
2021/12/02 05:28:57;;;;;;;6.63;2.25;;;22.00;56.20;;;;;;4928500;29;20300;-48
2021/12/02 05:31:28;;;;;;;4.03;1.90;;;22.00;56.20;;;;;;4928836;29;20699;-48
2021/12/02 05:33:58;;;;;;;6.03;2.30;;;22.00;56.20;;;;;;4928053;29;20327;-46
2021/12/02 05:36:29;;;;;;;7.45;1.90;;;22.00;56.10;;;;;;4932671;29;20206;-45
2021/12/02 05:39:01;;;;;;;7.63;1.80;;;22.00;56.10;;;;;;4931730;29;20230;-45
2021/12/02 05:41:32;;;;;;;6.65;2.25;;;22.00;56.00;;;;;;4931435;29;20294;-46
2021/12/02 05:44:03;;;;;;;5.22;2.35;;;22.00;55.90;;;;;;4932631;29;20228;-47
2021/12/02 05:46:34;;;;;;;8.40;2.13;;;22.00;55.90;;;;;;4932294;29;20287;-47
2021/12/02 05:49:04;;;;;;;10.50;2.70;;;22.00;55.90;;;;;;4931503;29;20306;-50
2021/12/02 05:51:34;;;;;;;8.32;2.67;;;22.00;56.00;;;;;;4932097;29;20290;-55
2021/12/02 05:54:07;;;;;;;14.95;3.47;;;21.90;56.00;;;;;;4931563;29;20594;-46
2021/12/02 05:56:38;;;;;;;8.55;2.85;;;21.90;56.60;;;;;;4932139;29;20294;-49
2021/12/02 05:59:08;;;;;;;8.60;2.50;;;21.90;56.00;;;;;;4931908;29;20329;-47
2021/12/02 06:01:42;;;;;;;10.35;3.33;;;21.90;56.10;;;;;;4932009;29;20211;-47
2021/12/02 06:04:13;;;;;;;11.48;2.65;;;21.90;56.10;;;;;;4931867;29;20644;-48
2021/12/02 06:06:43;;;;;;;7.72;2.53;;;21.90;56.10;;;;;;4932687;29;20202;-46
2021/12/02 06:09:19;;;;;;;10.50;2.83;;;21.90;56.10;;;;;;4931718;29;20618;-49
2021/12/02 06:11:50;;;;;;;9.77;3.00;;;22.00;56.20;;;;;;4931600;29;20331;-47
2021/12/02 06:14:20;;;;;;;7.18;2.65;;;21.90;56.10;;;;;;4932347;29;20219;-50
2021/12/02 06:16:50;;;;;;;7.55;2.88;;;22.00;56.10;;;;;;4932173;29;20333;-49
2021/12/02 06:19:21;;;;;;;6.38;2.45;;;21.90;56.10;;;;;;4931262;29;20577;-49
2021/12/02 06:21:51;;;;;;;8.65;2.83;;;21.90;56.10;;;;;;4931645;29;20209;-47
2021/12/02 06:24:29;;;;;;;7.93;2.28;;;21.90;56.10;;;;;;4932029;29;20834;-47
2021/12/02 06:27:00;;;;;;;8.32;2.72;;;22.00;56.10;;;;;;4931211;29;20676;-49
2021/12/02 06:29:30;;;;;;;5.15;2.20;;;22.00;56.10;;;;;;4932596;29;20294;-45
2021/12/02 06:32:00;;;;;;;6.43;2.30;;;22.00;56.00;;;;;;4930316;29;20235;-48
2021/12/02 06:34:31;;;;;;;7.40;2.85;;;22.00;56.10;;;;;;4926375;29;20319;-46
2021/12/02 06:37:01;;;;;;;7.47;2.47;;;22.00;56.00;;;;;;4931114;29;20195;-47
2021/12/02 06:39:34;;;;;;;6.40;2.38;;;22.00;56.00;;;;;;4931532;29;20196;-47
2021/12/02 06:42:04;;;;;;;6.53;2.35;;;21.90;55.90;;;;;;4931089;29;20290;-48
2021/12/02 06:44:34;;;;;;;5.53;2.35;;;22.00;56.00;;;;;;4930332;29;20214;-45
2021/12/02 06:47:05;;;;;;;6.03;2.80;;;22.00;56.10;;;;;;4931128;29;20288;-45
2021/12/02 06:49:36;;;;;;;6.13;2.38;;;22.00;56.10;;;;;;4931145;29;20227;-45
2021/12/02 06:52:10;;;;;;;6.82;2.50;;;22.00;56.10;;;;;;4931988;29;20238;-46
2021/12/02 06:54:42;;;;;;;9.82;2.70;;;22.00;56.00;;;;;;4931014;29;20699;-45
2021/12/02 06:57:13;;;;;;;5.10;2.53;;;22.00;56.00;;;;;;4930832;29;20674;-45
2021/12/02 06:59:43;;;;;;;9.45;2.63;;;22.00;56.10;;;;;;4928928;29;20207;-45
2021/12/02 07:02:14;;;;;;;5.93;2.25;;;22.00;56.00;;;;;;4929255;29;20222;-45
2021/12/02 07:04:44;;;;;;;4.55;2.35;;;22.00;56.00;;;;;;4924482;29;20640;-45
2021/12/02 07:07:14;;;;;;;8.38;2.47;;;22.00;55.90;;;;;;4930948;29;20231;-47
2021/12/02 07:09:47;;;;;;;6.38;2.30;;;22.00;56.00;;;;;;4929944;29;20199;-47
2021/12/02 07:12:18;;;;;;;4.63;1.83;;;22.00;55.90;;;;;;4930587;29;20199;-46
2021/12/02 07:14:49;;;;;;;3.83;2.22;;;22.00;55.90;;;;;;4931253;29;20239;-48
2021/12/02 07:17:19;;;;;;;4.93;2.20;;;22.00;55.90;;;;;;4930001;29;20247;-46
2021/12/02 07:19:50;;;;;;;5.32;1.98;;;22.00;55.90;;;;;;4931280;29;20287;-48
2021/12/02 07:22:20;;;;;;;4.60;2.08;;;22.00;55.90;;;;;;4930466;29;20203;-47
2021/12/02 07:24:52;;;;;;;7.88;2.10;;;21.90;55.80;;;;;;4930291;29;20290;-45
2021/12/02 07:27:23;;;;;;;6.72;2.22;;;22.00;55.80;;;;;;4930344;29;20318;-48
2021/12/02 07:29:54;;;;;;;6.70;2.10;;;21.90;55.80;;;;;;4929654;29;20214;-47
2021/12/02 07:32:30;;;;;;;5.38;1.80;;;21.90;55.80;;;;;;4930583;29;20292;-45
2021/12/02 07:35:05;;;;;;;3.38;1.58;;;21.90;55.80;;;;;;4924951;29;20313;-48
2021/12/02 07:37:36;;;;;;;5.38;2.00;;;21.90;56.40;;;;;;4929655;29;20306;-45
2021/12/02 07:40:09;;;;;;;6.93;2.33;;;21.90;55.80;;;;;;4930664;29;20319;-47
2021/12/02 07:42:40;;;;;;;3.50;1.92;;;21.90;55.80;;;;;;4931381;29;20283;-49
2021/12/02 07:45:12;;;;;;;4.85;2.03;;;21.90;55.80;;;;;;4930620;29;20807;-47
2021/12/02 07:47:44;;;;;;;4.15;2.00;;;21.90;55.80;;;;;;4929537;29;20259;-48
2021/12/02 07:50:16;;;;;;;7.53;2.15;;;21.90;55.90;;;;;;4930425;29;20239;-46
2021/12/02 07:52:50;;;;;;;5.55;2.10;;;21.90;55.90;;;;;;4929872;29;20302;-47
2021/12/02 07:55:23;;;;;;;3.85;1.98;;;21.90;55.90;;;;;;4930703;29;20322;-47
2021/12/02 07:57:55;;;;;;;5.07;2.10;;;21.90;55.90;;;;;;4928399;29;20302;-45
2021/12/02 08:00:28;;;;;;;3.50;2.13;;;21.90;55.90;;;;;;4930028;29;20299;-46
2021/12/02 08:02:59;;;;;;;5.75;2.33;;;21.90;55.90;;;;;;4930981;29;20212;-50
2021/12/02 08:05:30;;;;;;;3.47;1.75;;;21.90;55.90;;;;;;4930498;29;20234;-45
2021/12/02 08:08:01;;;;;;;3.85;1.75;;;21.80;55.80;;;;;;4930269;29;20275;-46
2021/12/02 08:10:34;;;;;;;3.83;1.77;;;21.80;55.90;;;;;;4929419;29;20295;-49
2021/12/02 08:13:04;;;;;;;4.20;2.00;;;21.80;55.80;;;;;;4929811;29;20278;-49
2021/12/02 08:15:35;;;;;;;4.55;2.03;;;21.80;55.80;;;;;;4930272;29;20889;-45
2021/12/02 08:18:06;;;;;;;6.95;2.60;;;21.80;55.90;;;;;;4928007;29;20307;-49
2021/12/02 08:20:38;;;;;;;5.88;2.15;;;21.80;55.90;;;;;;4929920;29;20206;-50
2021/12/02 08:23:08;;;;;;;5.32;2.28;;;21.80;56.10;;;;;;4929003;29;20287;-47
2021/12/02 08:25:40;;;;;;;4.88;2.00;;;21.80;56.10;;;;;;4930328;29;20870;-50
2021/12/02 08:28:11;;;;;;;6.95;2.00;;;21.80;56.10;;;;;;4929090;29;20325;-50
2021/12/02 08:30:42;;;;;;;5.30;2.08;;;21.80;56.10;;;;;;4930098;29;20286;-47
2021/12/02 08:33:14;;;;;;;6.15;1.80;;;21.80;56.10;;;;;;4928025;29;20294;-52
2021/12/02 08:35:44;;;;;;;4.45;1.95;;;21.80;56.60;;;;;;4928887;29;20223;-48
2021/12/02 08:38:17;;;;;;;6.35;2.15;;;21.80;56.00;;;;;;4931488;29;20266;-46
2021/12/02 08:40:49;;;;;;;4.15;1.90;;;21.80;56.00;;;;;;4931265;29;20200;-49
2021/12/02 08:43:20;;;;;;;6.72;2.20;;;21.80;56.00;;;;;;4930445;29;20708;-45
2021/12/02 08:45:50;;;;;;;5.57;2.03;;;21.80;55.90;;;;;;4929498;29;20747;-46
2021/12/02 08:48:21;;;;;;;5.65;1.98;;;21.80;56.50;;;;;;4916195;29;20219;-46
2021/12/02 08:50:51;;;;;;;5.00;2.20;;;21.80;55.90;;;;;;4916820;29;20288;-46
2021/12/02 08:53:22;;;;;;;4.07;1.88;;;21.80;55.90;;;;;;4930614;29;20206;-46
2021/12/02 08:55:54;;;;;;;4.72;1.92;;;21.70;55.90;;;;;;4930619;29;20778;-46
2021/12/02 08:58:25;;;;;;;4.57;2.20;;;21.80;55.90;;;;;;4927683;29;20233;-45
2021/12/02 09:00:55;;;;;;;5.00;1.90;;;21.80;55.90;;;;;;4924359;29;20287;-46
2021/12/02 09:03:26;;;;;;;4.47;2.17;;;21.70;55.90;;;;;;4917988;29;20262;-46
2021/12/02 09:05:56;;;;;;;6.32;2.22;;;21.70;55.90;;;;;;4917581;29;20206;-46
2021/12/02 09:08:26;;;;;;;5.35;1.98;;;21.70;55.80;;;;;;4931288;29;20518;-51
2021/12/02 09:10:59;;;;;;;5.68;2.20;;;21.70;55.80;;;;;;4931118;29;20283;-45
2021/12/02 09:13:29;;;;;;;4.85;1.92;;;21.70;55.80;;;;;;4915009;29;20283;-48
2021/12/02 09:16:00;;;;;;;4.50;1.90;;;21.70;55.80;;;;;;4930666;29;20657;-48
2021/12/02 09:18:30;;;;;;;5.15;2.05;;;21.70;55.80;;;;;;4929083;29;20306;-45
2021/12/02 09:21:01;;;;;;;4.28;1.92;;;21.70;55.80;;;;;;4929127;29;20810;-48
2021/12/02 09:23:32;;;;;;;2.83;1.60;;;21.70;55.80;;;;;;4926931;29;20206;-46
2021/12/02 09:26:04;;;;;;;4.38;1.83;;;21.70;55.80;;;;;;4922948;29;20283;-46
2021/12/02 09:28:34;;;;;;;3.28;1.60;;;21.70;55.80;;;;;;4922754;29;20302;-45
2021/12/02 09:31:05;;;;;;;5.63;1.85;;;21.70;55.80;;;;;;4921089;29;20286;-46
2021/12/02 09:33:35;;;;;;;3.83;1.85;;;21.70;55.80;;;;;;4923224;29;20294;-47
2021/12/02 09:36:06;;;;;;;2.47;1.77;;;21.70;55.80;;;;;;4923899;29;20695;-45
2021/12/02 09:38:36;;;;;;;3.13;1.75;;;21.70;55.80;;;;;;4922872;29;20322;-50
2021/12/02 09:41:09;;;;;;;3.83;2.03;;;21.70;55.80;;;;;;4923281;29;20282;-46
2021/12/02 09:43:39;;;;;;;3.55;1.60;;;21.60;55.80;;;;;;4924198;29;20282;-50
2021/12/02 09:46:10;;;;;;;3.97;1.73;;;21.70;55.80;;;;;;4923105;29;20255;-46
2021/12/02 09:48:41;;;;;;;5.32;1.88;;;21.60;55.80;;;;;;4923886;29;20303;-46
2021/12/02 09:51:15;;;;;;;3.63;1.70;;;21.60;55.80;;;;;;4919819;29;20288;-49
2021/12/02 09:53:52;;;;;;;2.78;1.90;;;21.60;55.80;;;;;;4924330;29;20202;-47
2021/12/02 09:56:28;;;;;;;3.72;1.60;;;21.60;55.80;;;;;;4922202;29;20703;-47
2021/12/02 09:59:04;;;;;;;2.90;1.83;;;21.60;55.80;;;;;;4921829;29;20215;-47
2021/12/02 10:01:40;;;;;;;5.03;2.30;;;21.60;55.80;;;;;;4923226;29;20202;-46
2021/12/02 10:04:12;;;;;;;4.10;1.63;;;21.60;55.80;;;;;;4919316;29;20844;-46
2021/12/02 10:06:43;;;;;;;3.35;1.80;;;21.60;55.80;;;;;;4927860;29;20195;-47
2021/12/02 10:09:18;;;;;;;3.13;1.50;;;21.60;55.80;;;;;;4923680;29;20632;-47
2021/12/02 10:11:56;;;;;;;4.18;1.67;;;21.60;55.80;;;;;;4921542;29;20739;-47
2021/12/02 10:14:32;;;;;;;4.30;1.77;;;21.60;55.70;;;;;;4923195;29;20204;-49
2021/12/02 10:17:13;;;;;;;4.22;2.15;;;21.60;55.70;;;;;;4923738;29;20286;-46
2021/12/02 10:20:24;;;;;;;3.17;1.95;;;21.60;55.70;;;;;;4921101;29;20200;-49
2021/12/02 10:23:13;;;;;;;4.95;1.92;;;21.60;55.70;;;;;;4926363;29;20199;-46
2021/12/02 10:25:48;;;;;;;2.45;1.63;;;21.60;55.70;;;;;;4925857;29;20287;-46
2021/12/02 10:28:21;;;;;;;4.00;1.60;;;21.50;55.70;;;;;;4924271;29;20726;-45
2021/12/02 10:30:53;;;;;;;2.40;1.75;;;21.50;55.70;;;;;;4919655;29;20754;-45
2021/12/02 10:33:33;;;;;;;2.60;1.60;;;21.50;55.70;;;;;;4934301;29;20392;-47
2021/12/02 10:36:05;;;;;;;3.70;1.67;;;21.50;55.70;;;;;;4918366;29;20219;-45
2021/12/02 10:38:39;;;;;;;2.75;1.50;;;21.50;55.70;;;;;;4933012;29;20302;-46
2021/12/02 10:41:12;;;;;;;1.88;1.25;;;21.50;55.70;;;;;;4918787;29;20202;-50
2021/12/02 10:44:12;;;;;;;3.53;1.70;;;21.50;55.70;;;;;;4931608;29;21176;-47
2021/12/02 10:46:53;;;;;;;3.03;1.65;;;21.50;55.70;;;;;;4933272;29;20290;-49
2021/12/02 10:49:24;;;;;;;2.90;1.38;;;21.50;55.70;;;;;;4917128;29;20204;-46
2021/12/02 10:51:56;;;;;;;2.92;1.60;;;21.50;55.70;;;;;;4930468;29;20283;-46
2021/12/02 10:54:27;;;;;;;3.65;1.80;;;21.50;55.60;;;;;;4932727;29;20294;-47
2021/12/02 10:57:00;;;;;;;3.20;1.58;;;21.50;55.60;;;;;;4932621;29;20314;-45
2021/12/02 10:59:42;;;;;;;5.05;1.88;;;21.50;55.60;;;;;;4932167;29;20286;-46
2021/12/02 11:02:20;;;;;;;4.32;1.33;;;21.50;55.70;;;;;;4930660;29;20207;-46
2021/12/02 11:04:53;;;;;;;4.22;1.88;;;21.50;55.60;;;;;;4917978;29;20250;-47
2021/12/02 11:07:26;;;;;;;2.47;1.45;;;21.40;55.60;;;;;;4926058;29;20755;-47
2021/12/02 11:09:57;;;;;;;2.25;1.42;;;21.40;55.60;;;;;;4932915;29;20294;-47
2021/12/02 11:12:30;;;;;;;3.83;1.70;;;21.40;55.60;;;;;;4929961;29;20211;-46
2021/12/02 11:15:20;;;;;;;3.13;1.50;;;21.40;55.60;;;;;;4922247;29;20299;-46
2021/12/02 11:17:53;;;;;;;2.33;1.40;;;21.40;55.60;;;;;;4919214;29;20303;-48
2021/12/02 11:20:25;;;;;;;1.80;1.42;;;21.40;55.70;;;;;;4921075;29;20678;-46
2021/12/02 11:23:00;;;;;;;2.30;1.40;;;21.30;55.60;;;;;;4933072;29;20199;-47
2021/12/02 11:25:31;;;;;;;3.42;1.42;;;21.30;55.60;;;;;;4932571;29;20287;-50
2021/12/02 11:28:07;;;;;;;5.25;2.00;;;21.30;55.60;;;;;;4930997;29;20306;-48
2021/12/02 11:30:40;;;;;;;3.40;1.52;;;21.30;55.60;;;;;;4918442;29;20650;-47
2021/12/02 11:33:11;;;;;;;3.78;1.58;;;21.30;55.60;;;;;;4918234;29;20306;-46
2021/12/02 11:35:44;;;;;;;2.53;1.38;;;21.30;55.60;;;;;;4932161;29;20283;-47
2021/12/02 11:38:17;;;;;;;2.42;1.58;;;21.30;55.50;;;;;;4932326;29;20223;-47
2021/12/02 11:40:49;;;;;;;2.53;1.40;;;21.30;55.50;;;;;;4917845;29;20208;-46
2021/12/02 11:43:23;;;;;;;3.10;1.45;;;21.30;55.50;;;;;;4930980;29;20294;-47
2021/12/02 11:45:56;;;;;;;2.83;1.70;;;21.30;55.50;;;;;;4931632;29;20242;-46
2021/12/02 11:48:28;;;;;;;2.25;1.40;;;21.30;55.50;;;;;;4931593;29;20306;-46
2021/12/02 11:51:00;;;;;;;2.97;1.35;;;21.30;55.50;;;;;;4932010;29;20200;-45
2021/12/02 11:53:32;;;;;;;2.58;1.40;;;21.30;55.60;;;;;;4922194;29;20291;-48
2021/12/02 11:56:06;;;;;;;2.92;1.60;;;21.20;55.50;;;;;;4917741;29;20235;-47
2021/12/02 11:58:37;;;;;;;2.92;1.52;;;21.20;55.60;;;;;;4924104;29;20311;-49
2021/12/02 12:01:15;;;;;;;2.65;1.45;;;21.20;55.60;;;;;;4924901;29;20720;-47
2021/12/02 12:03:49;;;;;;;2.75;1.45;;;21.20;55.60;;;;;;4921886;29;20200;-47
2021/12/02 12:06:27;;;;;;;3.20;1.60;;;21.20;55.60;;;;;;4931235;29;20289;-47
2021/12/02 12:08:58;;;;;;;1.95;1.40;;;21.20;55.60;;;;;;4930573;29;20335;-45
2021/12/02 12:11:29;;;;;;;1.45;1.08;;;21.20;55.60;;;;;;4930058;29;20740;-46
2021/12/02 12:14:02;;;;;;;2.28;1.38;;;21.20;55.60;;;;;;4930291;29;20303;-46
2021/12/02 12:16:36;;;;;;;2.75;1.30;;;21.20;55.60;;;;;;4932426;29;20223;-45
2021/12/02 12:19:20;;;;;;;2.33;1.20;;;21.20;55.60;;;;;;4917121;29;20215;-46
2021/12/02 12:21:56;;;;;;;1.98;1.33;;;21.20;55.50;;;;;;4931680;29;20200;-46
2021/12/02 12:24:41;;;;;;;2.67;1.30;;;21.20;55.50;;;;;;4916773;29;20231;-46
2021/12/02 12:27:17;;;;;;;3.70;1.73;;;21.20;55.50;;;;;;4917219;29;20219;-46
2021/12/02 12:29:52;;;;;;;2.50;1.25;;;21.20;55.50;;;;;;4916441;29;20294;-50
2021/12/02 12:32:57;;;;;;;1.95;1.15;;;21.20;55.50;;;;;;4932263;29;20230;-46
2021/12/02 12:35:56;;;;;;;2.13;1.48;;;21.20;55.50;;;;;;4916878;29;20210;-47
2021/12/02 12:38:28;;;;;;;2.20;1.20;;;21.10;55.50;;;;;;4929514;29;20225;-47
2021/12/02 12:41:01;;;;;;;2.60;1.50;;;21.10;55.50;;;;;;4929708;29;20200;-47
2021/12/02 12:43:40;;;;;;;3.65;1.73;;;21.10;55.60;;;;;;4930538;29;20203;-47
2021/12/02 12:46:19;;;;;;;2.13;1.30;;;21.10;55.60;;;;;;4932043;29;20743;-49
2021/12/02 12:48:51;;;;;;;3.08;1.65;;;21.10;55.60;;;;;;4929730;29;20307;-46
2021/12/02 12:51:28;;;;;;;2.35;1.38;;;21.00;55.60;;;;;;4930483;29;20246;-45
2021/12/02 12:53:59;;;;;;;1.42;1.00;;;21.00;55.60;;;;;;4929985;29;20204;-46
2021/12/02 12:56:32;;;;;;;1.42;1.13;;;21.00;55.60;;;;;;4931117;29;20310;-46
2021/12/02 12:59:11;;;;;;;2.67;1.30;;;21.00;55.60;;;;;;4930383;29;20318;-48
2021/12/02 13:01:55;;;;;;;1.73;1.25;;;21.00;55.60;;;;;;4930511;29;20286;-47
2021/12/02 13:04:33;;;;;;;2.08;1.20;;;21.00;55.50;;;;;;4930963;29;20671;-46
2021/12/02 13:07:09;;;;;;;2.38;1.30;;;21.00;55.50;;;;;;4930142;29;20290;-46
2021/12/02 13:10:02;;;;;;;2.20;1.40;;;21.00;55.50;;;;;;4930930;29;20243;-47
2021/12/02 13:12:52;;;;;;;1.92;1.35;;;21.00;55.40;;;;;;4929608;29;20239;-46
2021/12/02 13:15:25;;;;;;;2.22;1.30;;;21.00;55.50;;;;;;4930162;29;20206;-46
2021/12/02 13:17:57;;;;;;;2.55;1.23;;;21.00;55.50;;;;;;4929934;29;20242;-47
2021/12/02 13:20:43;;;;;;;2.70;1.25;;;21.00;55.60;;;;;;4929651;29;20214;-47
2021/12/02 13:23:36;;;;;;;2.53;1.40;;;21.00;55.60;;;;;;4929834;29;20203;-49
2021/12/02 13:26:21;;;;;;;2.17;1.13;;;20.90;55.60;;;;;;4930237;29;20238;-47